createdAt,value
2023-03-01T00:00:22.859Z,21.10
2023-03-01T00:02:50.175Z,20.03
2023-03-01T00:05:17.574Z,17.67
2023-03-01T00:07:44.988Z,18.87
2023-03-01T00:10:12.689Z,15.50
2023-03-01T00:17:26.860Z,24.77
2023-03-01T00:19:54.150Z,24.67
2023-03-01T00:22:21.868Z,20.87
2023-03-01T00:24:49.243Z,18.67
2023-03-01T00:27:16.512Z,23.43
2023-03-01T00:29:43.810Z,29.53
2023-03-01T00:32:11.160Z,34.03
2023-03-01T00:34:38.482Z,25.93
2023-03-01T00:37:06.576Z,33.90
2023-03-01T00:39:34.354Z,20.93
2023-03-01T00:42:01.979Z,22.13
2023-03-01T00:44:29.384Z,30.37
2023-03-01T00:46:57.075Z,20.10
2023-03-01T00:49:25.276Z,23.63
2023-03-01T00:51:52.586Z,25.57
2023-03-01T00:54:19.871Z,27.10
2023-03-01T00:56:48.496Z,24.77
2023-03-01T00:59:15.924Z,19.57
2023-03-01T01:01:43.701Z,29.77
2023-03-01T01:04:12.732Z,22.80
2023-03-01T01:06:43.418Z,19.87
2023-03-01T01:09:17.865Z,22.33
2023-03-01T01:11:48.402Z,19.50
2023-03-01T01:14:16.195Z,17.80
2023-03-01T01:16:43.663Z,21.70
2023-03-01T01:19:12.314Z,22.73
2023-03-01T01:21:39.635Z,26.93
2023-03-01T01:24:07.291Z,20.67
2023-03-01T01:26:35.429Z,24.73
2023-03-01T01:29:03.937Z,23.93
2023-03-01T01:31:32.343Z,24.93
2023-03-01T01:34:00.988Z,22.13
2023-03-01T01:36:28.853Z,31.20
2023-03-01T01:38:56.756Z,24.33
2023-03-01T01:41:25.322Z,25.17
2023-03-01T01:44:11.726Z,20.90
2023-03-01T01:46:42.548Z,23.63
2023-03-01T01:49:18.971Z,26.37
2023-03-01T01:51:49.105Z,30.80
2023-03-01T01:54:21.694Z,26.77
2023-03-01T01:56:59.085Z,37.20
2023-03-01T01:59:26.931Z,22.23
2023-03-01T02:01:54.663Z,25.00
2023-03-01T02:04:22.277Z,20.37
2023-03-01T02:06:53.604Z,32.57
2023-03-01T02:09:22.346Z,25.03
2023-03-01T02:11:49.999Z,26.30
2023-03-01T02:14:17.509Z,23.80
2023-03-01T02:16:45.078Z,21.63
2023-03-01T02:19:19.193Z,21.80
2023-03-01T02:21:49.269Z,21.10
2023-03-01T02:24:25.461Z,23.77
2023-03-01T02:26:57.206Z,25.53
2023-03-01T02:29:28.078Z,19.83
2023-03-01T02:31:57.561Z,21.20
2023-03-01T02:34:27.658Z,22.70
2023-03-01T02:37:01.488Z,20.23
2023-03-01T02:39:31.521Z,20.57
2023-03-01T02:42:01.180Z,26.77
2023-03-01T02:44:28.924Z,23.33
2023-03-01T02:46:58.593Z,20.73
2023-03-01T02:49:28.956Z,23.73
2023-03-01T02:51:56.534Z,17.23
2023-03-01T02:54:45.213Z,20.60
2023-03-01T02:57:13.167Z,25.90
2023-03-01T02:59:41.494Z,27.00
2023-03-01T03:02:23.113Z,21.43
2023-03-01T03:04:50.463Z,21.40
2023-03-01T03:07:17.866Z,24.83
2023-03-01T03:09:45.575Z,21.23
2023-03-01T03:12:13.843Z,21.43
2023-03-01T03:14:41.391Z,23.60
2023-03-01T03:17:08.751Z,22.13
2023-03-01T03:19:36.120Z,22.80
2023-03-01T03:22:03.480Z,22.57
2023-03-01T03:24:38.766Z,18.63
2023-03-01T03:27:06.844Z,24.97
2023-03-01T03:29:34.920Z,23.00
2023-03-01T03:32:02.305Z,21.50
2023-03-01T03:34:29.642Z,22.40
2023-03-01T03:37:00.567Z,25.13
2023-03-01T03:39:28.727Z,27.20
2023-03-01T03:41:56.689Z,18.60
2023-03-01T03:44:24.029Z,19.53
2023-03-01T03:46:51.302Z,25.77
2023-03-01T03:49:18.595Z,19.17
2023-03-01T03:51:47.597Z,23.63
2023-03-01T03:54:14.881Z,21.70
2023-03-01T03:56:42.287Z,23.70
2023-03-01T03:59:12.366Z,20.77
2023-03-01T04:01:39.761Z,20.40
2023-03-01T04:04:08.817Z,24.07
2023-03-01T04:06:36.133Z,21.53
2023-03-01T04:09:03.446Z,18.60
2023-03-01T04:11:30.812Z,27.17
2023-03-01T04:13:59.858Z,19.77
2023-03-01T04:16:27.333Z,20.37
2023-03-01T04:18:54.673Z,22.20
2023-03-01T04:21:22.339Z,26.33
2023-03-01T04:23:53.409Z,28.37
2023-03-01T04:26:21.693Z,24.63
2023-03-01T04:28:50.369Z,24.13
2023-03-01T04:31:19.312Z,22.03
2023-03-01T04:33:48.006Z,24.93
2023-03-01T04:36:16.520Z,24.73
2023-03-01T04:38:48.361Z,31.50
2023-03-01T04:41:16.645Z,24.80
2023-03-01T04:43:44.444Z,22.40
2023-03-01T04:46:16.103Z,25.20
2023-03-01T04:48:44.300Z,19.83
2023-03-01T04:51:14.307Z,30.07
2023-03-01T04:53:42.442Z,20.90
2023-03-01T04:56:10.236Z,27.27
2023-03-01T04:58:37.737Z,21.77
2023-03-01T05:01:16.514Z,18.63
2023-03-01T05:03:45.088Z,28.10
2023-03-01T05:06:12.844Z,22.10
2023-03-01T05:08:40.494Z,34.47
2023-03-01T05:11:09.890Z,27.37
2023-03-01T05:13:38.035Z,21.43
2023-03-01T05:16:06.735Z,27.87
2023-03-01T05:18:35.869Z,20.07
2023-03-01T05:21:04.981Z,26.03
2023-03-01T05:23:33.000Z,25.08
2023-03-01T05:26:01.003Z,25.43
2023-03-01T05:28:29.454Z,19.87
2023-03-01T05:30:57.225Z,19.53
2023-03-01T05:33:25.221Z,18.63
2023-03-01T05:35:53.744Z,21.13
2023-03-01T05:38:22.085Z,27.73
2023-03-01T05:40:50.257Z,19.83
2023-03-01T05:43:19.028Z,25.43
2023-03-01T05:45:47.089Z,32.07
2023-03-01T05:48:14.648Z,30.73
2023-03-01T05:50:43.959Z,21.67
2023-03-01T05:53:13.259Z,19.43
2023-03-01T05:55:41.035Z,21.70
2023-03-01T05:58:10.953Z,18.83
2023-03-01T06:00:38.466Z,29.07
2023-03-01T06:03:05.951Z,17.97
2023-03-01T06:05:33.378Z,27.43
2023-03-01T06:08:01.707Z,21.20
2023-03-01T06:10:29.359Z,21.13
2023-03-01T06:12:57.206Z,23.63
2023-03-01T06:15:24.620Z,25.87
2023-03-01T06:17:52.053Z,29.87
2023-03-01T06:20:21.181Z,21.37
2023-03-01T06:22:50.054Z,20.40
2023-03-01T06:25:19.369Z,17.83
2023-03-01T06:27:46.859Z,25.27
2023-03-01T06:30:15.364Z,20.37
2023-03-01T06:32:43.557Z,18.83
2023-03-01T06:35:12.318Z,23.43
2023-03-01T06:37:39.855Z,25.70
2023-03-01T06:40:12.451Z,24.33
2023-03-01T06:42:41.000Z,20.47
2023-03-01T06:45:08.997Z,23.93
2023-03-01T06:47:36.316Z,25.50
2023-03-01T06:50:04.013Z,26.43
2023-03-01T06:52:31.624Z,25.37
2023-03-01T06:54:59.001Z,24.17
2023-03-01T06:57:26.450Z,24.13
2023-03-01T06:59:53.713Z,26.87
2023-03-01T07:02:21.023Z,27.77
2023-03-01T07:04:48.313Z,31.53
2023-03-01T07:07:15.792Z,38.17
2023-03-01T07:09:43.096Z,43.53
2023-03-01T07:12:10.439Z,41.77
2023-03-01T07:14:37.753Z,34.40
2023-03-01T07:17:05.050Z,35.90
2023-03-01T07:19:32.392Z,34.83
2023-03-01T07:22:00.112Z,28.97
2023-03-01T07:24:27.472Z,38.90
2023-03-01T07:26:54.816Z,30.47
2023-03-01T07:29:22.148Z,34.83
2023-03-01T07:31:49.971Z,30.53
2023-03-01T07:34:17.608Z,35.77
2023-03-01T07:36:46.324Z,36.90
2023-03-01T07:39:14.183Z,41.60
2023-03-01T07:41:41.620Z,36.43
2023-03-01T07:44:10.203Z,44.50
2023-03-01T07:46:37.594Z,42.87
2023-03-01T07:49:05.626Z,33.43
2023-03-01T07:51:32.928Z,40.47
2023-03-01T07:54:00.332Z,37.63
2023-03-01T07:56:27.711Z,38.57
2023-03-01T07:58:55.228Z,36.30
2023-03-01T08:01:23.429Z,37.30
2023-03-01T08:03:50.718Z,35.53
2023-03-01T08:06:18.690Z,34.17
2023-03-01T08:08:47.449Z,33.17
2023-03-01T08:11:15.804Z,36.27
2023-03-01T08:13:43.809Z,36.07
2023-03-01T08:16:13.113Z,40.87
2023-03-01T08:18:40.468Z,41.97
2023-03-01T08:21:09.193Z,33.13
2023-03-01T08:23:36.586Z,38.13
2023-03-01T08:26:11.404Z,35.63
2023-03-01T08:28:38.760Z,35.00
2023-03-01T08:31:16.832Z,37.07
2023-03-01T08:33:44.696Z,34.90
2023-03-01T08:36:12.211Z,35.97
2023-03-01T08:38:39.532Z,33.87
2023-03-01T08:41:06.831Z,39.07
2023-03-01T08:43:34.158Z,32.47
2023-03-01T08:46:01.719Z,28.20
2023-03-01T08:48:30.011Z,32.70
2023-03-01T08:50:57.553Z,32.10
2023-03-01T08:53:24.877Z,27.10
2023-03-01T08:55:52.129Z,34.57
2023-03-01T08:58:19.531Z,30.63
2023-03-01T09:00:46.959Z,26.60
2023-03-01T09:03:14.377Z,23.73
2023-03-01T09:05:42.069Z,25.47
2023-03-01T09:08:09.887Z,24.13
2023-03-01T09:10:39.245Z,23.77
2023-03-01T09:13:06.655Z,17.40
2023-03-01T09:15:34.461Z,25.47
2023-03-01T09:18:02.137Z,24.40
2023-03-01T09:20:30.022Z,22.30
2023-03-01T09:22:57.337Z,26.93
2023-03-01T09:25:24.748Z,22.63
2023-03-01T09:27:55.889Z,23.23
2023-03-01T09:30:23.231Z,29.00
2023-03-01T09:32:50.564Z,23.27
2023-03-01T09:35:17.918Z,24.97
2023-03-01T09:37:45.532Z,21.80
2023-03-01T09:40:18.761Z,17.00
2023-03-01T09:42:55.178Z,19.00
2023-03-01T09:45:28.365Z,20.70
2023-03-01T09:47:56.140Z,17.87
2023-03-01T09:50:23.853Z,21.27
2023-03-01T09:53:01.845Z,23.10
2023-03-01T09:55:39.337Z,24.67
2023-03-01T09:58:06.634Z,25.07
2023-03-01T10:00:39.994Z,25.60
2023-03-01T10:03:18.343Z,22.10
2023-03-01T10:05:50.092Z,18.57
2023-03-01T10:08:26.569Z,15.17
2023-03-01T10:10:54.484Z,23.00
2023-03-01T10:13:25.670Z,17.17
2023-03-01T10:15:58.781Z,18.53
2023-03-01T10:18:31.074Z,18.67
2023-03-01T10:21:02.608Z,15.57
2023-03-01T10:23:31.814Z,15.67
2023-03-01T10:25:59.052Z,16.27
2023-03-01T10:28:33.086Z,18.70
2023-03-01T10:31:01.091Z,20.47
2023-03-01T10:33:31.048Z,17.63
2023-03-01T10:35:58.497Z,17.10
2023-03-01T10:38:26.276Z,16.33
2023-03-01T10:40:58.170Z,18.13
2023-03-01T10:43:26.933Z,16.13
2023-03-01T10:45:54.754Z,13.23
2023-03-01T10:48:25.446Z,19.67
2023-03-01T10:50:59.282Z,18.73
2023-03-01T10:53:27.391Z,16.17
2023-03-01T10:56:00.961Z,20.20
2023-03-01T10:58:28.789Z,13.03
2023-03-01T11:00:57.741Z,18.43
2023-03-01T11:03:25.349Z,18.03
2023-03-01T11:05:58.385Z,20.07
2023-03-01T11:08:35.017Z,14.07
2023-03-01T11:11:06.338Z,15.73
2023-03-01T11:13:34.732Z,17.93
2023-03-01T11:16:07.824Z,14.33
2023-03-01T11:18:46.846Z,21.67
2023-03-01T11:21:16.288Z,19.83
2023-03-01T11:23:44.856Z,14.70
2023-03-01T11:26:14.039Z,14.30
2023-03-01T11:28:42.192Z,18.07
2023-03-01T11:31:15.797Z,15.13
2023-03-01T11:33:58.435Z,16.70
2023-03-01T11:36:31.760Z,14.57
2023-03-01T11:39:03.094Z,16.87
2023-03-01T11:41:33.231Z,17.07
2023-03-01T11:44:02.685Z,17.13
2023-03-01T11:46:40.058Z,15.33
2023-03-01T11:49:26.449Z,12.90
2023-03-01T11:52:12.338Z,14.90
2023-03-01T11:54:54.963Z,24.10
2023-03-01T11:57:42.866Z,17.73
2023-03-01T12:00:20.221Z,13.23
2023-03-01T12:03:01.215Z,12.77
2023-03-01T12:05:28.780Z,16.70
2023-03-01T12:08:09.165Z,17.53
2023-03-01T12:10:56.215Z,19.77
2023-03-01T12:13:38.745Z,20.23
2023-03-01T12:16:38.310Z,15.50
2023-03-01T12:19:12.795Z,18.83
2023-03-01T12:21:40.140Z,15.97
2023-03-01T12:24:10.501Z,18.73
2023-03-01T12:26:46.233Z,15.37
2023-03-01T12:29:20.695Z,19.03
2023-03-01T12:31:54.292Z,18.37
2023-03-01T12:34:27.952Z,14.33
2023-03-01T12:37:01.246Z,17.87
2023-03-01T12:39:39.910Z,14.13
2023-03-01T12:42:13.399Z,19.87
2023-03-01T12:44:59.052Z,17.20
2023-03-01T12:47:38.923Z,17.10
2023-03-01T12:50:13.397Z,13.13
2023-03-01T12:52:43.102Z,10.13
2023-03-01T12:55:19.750Z,14.33
2023-03-01T12:57:50.670Z,17.67
2023-03-01T13:00:24.030Z,11.83
2023-03-01T13:02:54.103Z,17.90
2023-03-01T13:05:39.441Z,19.83
2023-03-01T13:08:29.175Z,17.90
2023-03-01T13:11:00.656Z,18.50
2023-03-01T13:13:28.852Z,17.07
2023-03-01T13:15:56.613Z,20.70
2023-03-01T13:18:25.211Z,22.37
2023-03-01T13:20:53.556Z,12.27
2023-03-01T13:23:23.922Z,15.23
2023-03-01T13:26:00.498Z,14.30
2023-03-01T13:28:30.884Z,15.50
2023-03-01T13:30:58.335Z,9.77
2023-03-01T13:33:28.949Z,14.33
2023-03-01T13:35:57.717Z,14.43
2023-03-01T13:38:38.739Z,18.43
2023-03-01T13:41:06.249Z,14.77
2023-03-01T13:43:35.076Z,15.57
2023-03-01T13:46:03.901Z,14.37
2023-03-01T13:48:32.397Z,13.70
2023-03-01T13:51:01.740Z,19.13
2023-03-01T13:53:31.607Z,13.50
2023-03-01T13:56:12.748Z,20.30
2023-03-01T13:58:49.697Z,15.37
2023-03-01T14:01:34.160Z,10.37
2023-03-01T14:04:02.726Z,16.33
2023-03-01T14:06:31.983Z,16.77
2023-03-01T14:09:11.992Z,11.37
2023-03-01T14:11:39.430Z,17.37
2023-03-01T14:14:09.850Z,14.63
2023-03-01T14:16:40.186Z,9.40
2023-03-01T14:19:34.915Z,12.37
2023-03-01T14:22:05.417Z,9.70
2023-03-01T14:24:34.003Z,13.53
2023-03-01T14:27:03.072Z,11.07
2023-03-01T14:29:37.489Z,6.67
2023-03-01T14:32:13.866Z,7.57
2023-03-01T14:34:46.530Z,9.83
2023-03-01T14:37:26.136Z,7.30
2023-03-01T14:39:53.838Z,10.47
2023-03-01T14:42:22.763Z,10.33
2023-03-01T14:44:51.922Z,11.03
2023-03-01T14:47:33.127Z,10.07
2023-03-01T14:50:03.794Z,9.57
2023-03-01T14:52:35.768Z,11.53
2023-03-01T14:55:04.540Z,5.57
2023-03-01T14:57:32.202Z,7.93
2023-03-01T15:00:01.860Z,6.03
2023-03-01T15:02:30.524Z,9.03
2023-03-01T15:04:59.191Z,8.23
2023-03-01T15:07:30.125Z,9.50
2023-03-01T15:09:57.633Z,10.97
2023-03-01T15:12:31.200Z,10.23
2023-03-01T15:15:04.373Z,14.43
2023-03-01T15:17:39.620Z,10.57
2023-03-01T15:20:08.703Z,8.37
2023-03-01T15:22:36.755Z,8.17
2023-03-01T15:25:04.538Z,6.97
2023-03-01T15:27:31.823Z,5.07
2023-03-01T15:30:00.648Z,9.83
2023-03-01T15:32:29.840Z,7.17
2023-03-01T15:34:57.632Z,10.00
2023-03-01T15:37:43.832Z,8.03
2023-03-01T15:40:32.547Z,10.40
2023-03-01T15:43:00.117Z,8.90
2023-03-01T15:45:28.812Z,6.93
2023-03-01T15:47:59.410Z,12.97
2023-03-01T15:50:28.559Z,7.13
2023-03-01T15:52:56.565Z,8.60
2023-03-01T15:55:25.713Z,7.97
2023-03-01T15:58:01.397Z,9.90
2023-03-01T16:00:29.737Z,7.23
2023-03-01T16:02:57.903Z,7.27
2023-03-01T16:05:27.524Z,11.30
2023-03-01T16:07:55.213Z,8.00
2023-03-01T16:10:23.208Z,9.40
2023-03-01T16:12:52.597Z,15.00
2023-03-01T16:15:21.704Z,7.17
2023-03-01T16:17:49.345Z,14.47
2023-03-01T16:20:28.429Z,9.73
2023-03-01T16:22:56.858Z,10.03
2023-03-01T16:25:24.150Z,6.30
2023-03-01T16:27:52.176Z,11.63
2023-03-01T16:30:20.861Z,9.53
2023-03-01T16:32:49.420Z,9.13
2023-03-01T16:35:18.742Z,9.90
2023-03-01T16:37:47.092Z,7.23
2023-03-01T16:40:25.455Z,21.20
2023-03-01T16:42:52.980Z,7.77
2023-03-01T16:45:25.344Z,9.10
2023-03-01T16:47:55.876Z,10.47
2023-03-01T16:50:23.944Z,10.33
2023-03-01T16:52:51.518Z,5.97
2023-03-01T16:55:19.028Z,9.80
2023-03-01T16:57:46.717Z,13.40
2023-03-01T17:00:14.538Z,11.70
2023-03-01T17:02:42.529Z,12.90
2023-03-01T17:05:13.957Z,11.93
2023-03-01T17:07:41.495Z,9.27
2023-03-01T17:10:10.269Z,12.90
2023-03-01T17:12:37.784Z,13.73
2023-03-01T17:15:06.542Z,9.73
2023-03-01T17:17:35.892Z,14.13
2023-03-01T17:20:04.944Z,21.03
2023-03-01T17:22:32.507Z,13.97
2023-03-01T17:24:59.890Z,23.90
2023-03-01T17:27:27.607Z,27.83
2023-03-01T17:29:55.133Z,20.77
2023-03-01T17:32:22.790Z,17.10
2023-03-01T17:34:50.305Z,17.17
2023-03-01T17:37:17.803Z,16.23
2023-03-01T17:39:45.135Z,16.27
2023-03-01T17:42:12.500Z,14.80
2023-03-01T17:44:41.039Z,18.80
2023-03-01T17:47:10.840Z,16.57
2023-03-01T17:49:38.280Z,21.33
2023-03-01T17:52:06.037Z,17.53
2023-03-01T17:54:33.763Z,15.17
2023-03-01T17:57:01.098Z,16.80
2023-03-01T17:59:33.568Z,22.33
2023-03-01T18:02:01.735Z,17.47
2023-03-01T18:04:29.605Z,13.23
2023-03-01T18:06:57.015Z,21.83
2023-03-01T18:09:24.981Z,13.10
2023-03-01T18:11:53.947Z,15.63
2023-03-01T18:14:21.420Z,15.53
2023-03-01T18:16:48.977Z,13.50
2023-03-01T18:19:16.327Z,12.17
2023-03-01T18:21:44.040Z,20.80
2023-03-01T18:24:11.350Z,14.33
2023-03-01T18:26:40.171Z,17.33
2023-03-01T18:29:08.241Z,15.80
2023-03-01T18:31:35.714Z,16.67
2023-03-01T18:34:03.240Z,19.60
2023-03-01T18:36:32.380Z,18.67
2023-03-01T18:38:59.866Z,15.43
2023-03-01T18:41:28.369Z,20.20
2023-03-01T18:43:56.071Z,16.13
2023-03-01T18:46:23.816Z,16.27
2023-03-01T18:48:52.331Z,18.47
2023-03-01T18:51:20.832Z,18.03
2023-03-01T18:53:48.264Z,15.40
2023-03-01T18:56:16.003Z,15.97
2023-03-01T18:58:43.534Z,20.57
2023-03-01T19:01:15.118Z,19.17
2023-03-01T19:03:42.662Z,21.63
2023-03-01T19:06:10.115Z,23.23
2023-03-01T19:08:38.491Z,20.40
2023-03-01T19:11:06.901Z,19.50
2023-03-01T19:13:38.512Z,22.60
2023-03-01T19:16:12.079Z,24.47
2023-03-01T19:18:41.086Z,18.43
2023-03-01T19:21:09.362Z,21.03
2023-03-01T19:23:38.462Z,26.97
2023-03-01T19:26:07.231Z,19.87
2023-03-01T19:28:37.005Z,18.80
2023-03-01T19:31:07.561Z,19.80
2023-03-01T19:33:36.056Z,16.67
2023-03-01T19:36:06.323Z,23.90
2023-03-01T19:38:33.675Z,21.33
2023-03-01T19:41:04.786Z,27.73
2023-03-01T19:43:32.176Z,19.13
2023-03-01T19:45:59.632Z,18.07
2023-03-01T19:48:27.120Z,14.60
2023-03-01T19:50:54.585Z,22.30
2023-03-01T19:53:22.560Z,15.43
2023-03-01T19:55:52.983Z,22.37
2023-03-01T19:58:20.378Z,23.60
2023-03-01T20:00:48.180Z,20.40
2023-03-01T20:03:15.683Z,22.37
2023-03-01T20:05:43.758Z,17.43
2023-03-01T20:08:11.144Z,21.23
2023-03-01T20:10:38.806Z,19.33
2023-03-01T20:13:06.679Z,15.73
2023-03-01T20:15:34.073Z,19.37
2023-03-01T20:18:01.595Z,16.43
2023-03-01T20:20:29.115Z,16.23
2023-03-01T20:23:02.333Z,12.13
2023-03-01T20:25:29.691Z,13.23
2023-03-01T20:27:57.276Z,17.63
2023-03-01T20:30:24.643Z,15.27
2023-03-01T20:32:52.012Z,54.67
2023-03-01T20:35:19.738Z,18.13
2023-03-01T20:37:47.193Z,19.47
2023-03-01T20:40:18.741Z,17.20
2023-03-01T20:42:46.508Z,20.45
2023-03-01T20:45:14.000Z,24.53
2023-03-01T20:47:41.511Z,22.80
2023-03-01T20:50:09.090Z,20.03
2023-03-01T20:52:45.778Z,40.77
2023-03-01T20:55:14.459Z,55.07
2023-03-01T20:57:42.043Z,51.67
2023-03-01T21:00:10.158Z,22.87
2023-03-01T21:02:38.804Z,22.27
2023-03-01T21:05:06.601Z,20.00
2023-03-01T21:07:34.223Z,20.83
2023-03-01T21:10:01.619Z,17.93
2023-03-01T21:12:28.986Z,19.87
2023-03-01T21:14:56.315Z,18.23
2023-03-01T21:17:23.757Z,19.80
2023-03-01T21:19:51.134Z,22.53
2023-03-01T21:22:18.482Z,22.53
2023-03-01T21:24:46.035Z,23.47
2023-03-01T21:27:13.617Z,32.97
2023-03-01T21:29:41.711Z,28.87
2023-03-01T21:32:09.851Z,19.40
2023-03-01T21:34:37.837Z,28.33
2023-03-01T21:37:05.253Z,19.23
2023-03-01T21:39:32.636Z,20.97
2023-03-01T21:42:01.025Z,17.10
2023-03-01T21:44:29.217Z,20.03
2023-03-01T21:46:58.866Z,19.67
2023-03-01T21:49:27.001Z,52.00
2023-03-01T21:51:54.799Z,40.33
2023-03-01T21:54:22.514Z,26.20
2023-03-01T21:56:50.827Z,30.57
2023-03-01T21:59:19.406Z,27.90
2023-03-01T22:01:47.341Z,32.10
2023-03-01T22:04:15.584Z,24.83
2023-03-01T22:06:44.262Z,35.07
2023-03-01T22:09:19.313Z,39.17
2023-03-01T22:11:48.761Z,42.07
2023-03-01T22:14:16.611Z,21.07
2023-03-01T22:16:45.537Z,23.63
2023-03-01T22:19:13.944Z,24.53
2023-03-01T22:21:42.613Z,29.63
2023-03-01T22:24:11.481Z,23.00
2023-03-01T22:26:39.886Z,21.67
2023-03-01T22:29:09.130Z,21.40
2023-03-01T22:31:37.947Z,32.53
2023-03-01T22:34:06.062Z,31.00
2023-03-01T22:36:33.757Z,29.17
2023-03-01T22:39:01.999Z,32.73
2023-03-01T22:41:30.684Z,37.60
2023-03-01T22:43:58.173Z,38.23
2023-03-01T22:46:26.170Z,24.00
2023-03-01T22:48:54.083Z,25.60
2023-03-01T22:51:28.632Z,24.83
2023-03-01T22:53:56.271Z,21.13
2023-03-01T22:56:25.508Z,27.20
2023-03-01T22:58:53.220Z,25.83
2023-03-01T23:01:21.911Z,25.17
2023-03-01T23:03:49.294Z,17.63
2023-03-01T23:06:17.311Z,25.53
2023-03-01T23:08:45.044Z,26.17
2023-03-01T23:11:13.778Z,18.97
2023-03-01T23:13:41.263Z,21.00
2023-03-01T23:16:08.662Z,25.20
2023-03-01T23:18:41.372Z,36.85
2023-03-01T23:21:15.088Z,29.53
2023-03-01T23:23:42.949Z,23.70
2023-03-01T23:26:10.735Z,32.33
2023-03-01T23:28:41.330Z,25.87
2023-03-01T23:31:10.595Z,22.57
2023-03-01T23:33:38.679Z,19.37
2023-03-01T23:36:16.300Z,22.30
2023-03-01T23:38:43.626Z,19.93
2023-03-01T23:41:11.750Z,21.70
2023-03-01T23:43:44.771Z,25.57
2023-03-01T23:46:14.358Z,24.43
2023-03-01T23:48:45.377Z,27.60
2023-03-01T23:51:13.191Z,22.07
2023-03-01T23:53:42.416Z,19.03
2023-03-01T23:56:11.632Z,29.90
2023-03-01T23:58:38.916Z,24.50
